Time;durP1;ratioP1;P1;durP2;ratioP2;P2;SDS_P1;SDS_P2;PMS_P1;PMS_P2;Temp;Humidity;BMP_temperature;BMP_pressure;BME280_temperature;BME280_humidity;BME280_pressure;Samples;Min_cycle;Max_cycle;Signal;HPM_P1;HPM_P2
2023/02/06 00:00:20;;;;;;;9.02;3.40;;;;;;;-3.76;58.95;101808.38;5264319;27;20061;-89
2023/02/06 00:02:45;;;;;;;11.38;4.22;;;;;;;-3.55;58.96;101806.16;5246347;27;20078;-90
2023/02/06 00:05:11;;;;;;;9.68;4.53;;;;;;;-3.41;58.96;101805.31;5264118;27;20426;-90
2023/02/06 00:07:37;;;;;;;10.63;4.15;;;;;;;-3.62;58.96;101807.50;5264105;27;20091;-89
2023/02/06 00:10:02;;;;;;;13.23;4.72;;;;;;;-3.84;58.95;101818.09;5265061;27;20378;-87
2023/02/06 00:12:28;;;;;;;14.77;5.10;;;;;;;-3.92;58.93;101823.53;5282529;27;20057;-90
2023/02/06 00:14:53;;;;;;;12.37;5.00;;;;;;;-3.99;58.93;101821.41;5264472;27;20093;-88
2023/02/06 00:17:19;;;;;;;11.73;5.07;;;;;;;-3.92;58.93;101832.03;5264797;27;20089;-90
2023/02/06 00:19:45;;;;;;;12.10;4.40;;;;;;;-3.96;58.94;101832.63;5264210;27;20057;-89
2023/02/06 00:22:12;;;;;;;9.23;4.47;;;;;;;-3.78;58.94;101832.84;5264120;27;20349;-89
2023/02/06 00:24:39;;;;;;;8.77;4.78;;;;;;;-3.74;58.95;101838.22;5282465;27;20063;-90
2023/02/06 00:27:06;;;;;;;12.57;5.40;;;;;;;-4.07;58.92;101844.69;5283358;27;20041;-89
2023/02/06 00:29:31;;;;;;;14.65;4.82;;;;;;;-4.02;58.93;101842.47;5285100;27;20078;-89
2023/02/06 00:31:56;;;;;;;10.50;4.90;;;;;;;-3.98;58.94;101833.34;5263470;27;20607;-91
2023/02/06 00:34:22;;;;;;;10.00;4.30;;;;;;;-4.03;58.93;101839.00;5264300;27;20132;-90
2023/02/06 00:36:47;;;;;;;15.32;4.50;;;;;;;-4.07;58.92;101856.53;5264142;27;20224;-90
2023/02/06 00:39:13;;;;;;;9.25;4.50;;;;;;;-4.03;58.93;101850.84;5264211;27;20132;-92
2023/02/06 00:41:38;;;;;;;11.12;4.85;;;;;;;-4.04;58.93;101847.41;5264619;27;20542;-91
2023/02/06 00:44:04;;;;;;;15.65;5.15;;;;;;;-4.10;58.93;101852.16;5284064;27;20086;-91
2023/02/06 00:46:31;;;;;;;11.63;4.68;;;;;;;-4.22;58.92;101855.62;5265401;27;20079;-91
2023/02/06 00:48:56;;;;;;;9.88;4.62;;;;;;;-4.26;58.92;101857.06;5264747;27;20772;-88
2023/02/06 00:51:22;;;;;;;10.55;4.03;;;;;;;-4.21;58.92;101847.22;5265761;27;20108;-91
2023/02/06 00:53:47;;;;;;;16.15;4.15;;;;;;;-3.96;58.94;101847.03;5267745;27;20056;-89
2023/02/06 00:56:13;;;;;;;11.50;4.32;;;;;;;-4.19;58.92;101841.44;5268230;27;20063;-89
2023/02/06 00:58:38;;;;;;;10.10;4.62;;;;;;;-4.32;58.92;101837.25;5270357;27;20111;-90
2023/02/06 01:01:03;;;;;;;10.18;3.85;;;;;;;-4.33;58.91;101845.66;5269567;27;20096;-90
2023/02/06 01:03:29;;;;;;;11.75;4.20;;;;;;;-4.15;58.92;101843.37;5268639;27;20144;-89
2023/02/06 01:05:54;;;;;;;14.82;5.65;;;;;;;-4.14;58.92;101846.78;5267930;27;20413;-89
2023/02/06 01:08:20;;;;;;;13.93;6.43;;;;;;;-4.16;58.93;101839.06;5269837;27;20115;-90
2023/02/06 01:10:45;;;;;;;11.65;4.78;;;;;;;-4.14;58.92;101837.50;5267708;27;20119;-88
2023/02/06 01:13:11;;;;;;;10.95;4.97;;;;;;;-3.95;58.94;101834.41;5267966;27;20112;-89
2023/02/06 01:15:36;;;;;;;8.10;3.97;;;;;;;-4.10;58.93;101828.38;5268447;27;20068;-90
2023/02/06 01:18:02;;;;;;;10.10;4.60;;;;;;;-4.21;58.92;101831.97;5268213;27;20126;-89
2023/02/06 01:20:27;;;;;;;11.93;4.37;;;;;;;-4.27;58.92;101836.66;5268855;27;20450;-91
2023/02/06 01:22:52;;;;;;;11.18;4.03;;;;;;;-4.38;58.91;101841.97;5268288;27;20064;-89
2023/02/06 01:25:18;;;;;;;11.27;4.78;;;;;;;-4.40;58.92;101843.53;5286952;27;20045;-90
2023/02/06 01:27:43;;;;;;;9.90;4.30;;;;;;;-4.39;58.90;101842.75;5271021;27;20057;-88
2023/02/06 01:30:10;;;;;;;8.57;4.10;;;;;;;-4.27;58.92;101841.72;5286654;27;20143;-89
2023/02/06 01:32:39;;;;;;;11.52;4.43;;;;;;;-4.59;58.90;101840.63;5268688;27;20068;-90
2023/02/06 01:35:06;;;;;;;10.20;4.12;;;;;;;-4.70;58.89;101846.72;5287378;27;20437;-90
2023/02/06 01:37:32;;;;;;;10.18;3.83;;;;;;;-4.76;58.89;101862.44;5269477;27;20072;-89
2023/02/06 01:39:57;;;;;;;6.05;3.25;;;;;;;-4.78;58.89;101853.84;5268910;27;20362;-88
2023/02/06 01:42:23;;;;;;;8.02;3.40;;;;;;;-4.64;58.89;101850.53;5268744;27;20104;-89
2023/02/06 01:44:48;;;;;;;9.77;3.60;;;;;;;-4.60;58.90;101849.06;5268750;27;20067;-88
2023/02/06 01:47:14;;;;;;;9.70;4.00;;;;;;;-4.75;58.89;101841.34;5270477;27;20061;-90
2023/02/06 01:49:45;;;;;;;8.40;3.97;;;;;;;-4.61;58.90;101841.34;5261291;27;87841;-88
2023/02/06 01:52:22;;;;;;;10.13;4.20;;;;;;;-4.46;58.91;101832.12;5269577;27;20045;-89
2023/02/06 01:54:59;;;;;;;9.63;4.07;;;;;;;-4.58;58.89;101829.69;5269606;27;20056;-90
2023/02/06 01:57:24;;;;;;;9.82;3.72;;;;;;;-4.54;58.90;101844.34;5270047;27;20076;-89
2023/02/06 01:59:52;;;;;;;6.87;3.33;;;;;;;-4.45;58.91;101838.97;5268516;27;20098;-90
2023/02/06 02:02:17;;;;;;;10.02;3.78;;;;;;;-4.44;58.91;101839.06;5268685;27;20076;-90
2023/02/06 02:04:43;;;;;;;11.48;3.95;;;;;;;-4.47;58.91;101843.06;5268735;27;20087;-89
2023/02/06 02:07:16;;;;;;;11.35;4.00;;;;;;;-4.53;58.91;101852.84;5271051;27;20402;-91
2023/02/06 02:09:41;;;;;;;10.38;3.80;;;;;;;-4.45;58.90;101849.12;5289165;27;20066;-89
2023/02/06 02:12:07;;;;;;;12.50;4.28;;;;;;;-4.68;58.89;101848.59;5289071;27;20075;-89
2023/02/06 02:14:32;;;;;;;8.85;4.35;;;;;;;-4.65;58.89;101838.59;5268317;27;20442;-90
2023/02/06 02:17:17;;;;;;;10.80;3.75;;;;;;;-4.57;58.89;101825.47;5268641;27;20057;-89
2023/02/06 02:20:13;;;;;;;10.32;3.80;;;;;;;-4.70;58.89;101832.38;5304503;27;20121;-89
2023/02/06 02:22:42;;;;;;;7.47;3.53;;;;;;;-4.85;58.89;101831.38;5304930;27;20021;-89
2023/02/06 02:25:46;;;;;;;8.63;3.83;;;;;;;-4.58;58.90;101819.53;5287030;27;20071;-88
2023/02/06 02:28:49;;;;;;;10.23;4.07;;;;;;;-4.44;58.90;101821.25;5289034;27;20111;-88
2023/02/06 02:31:14;;;;;;;9.93;4.35;;;;;;;-4.52;58.91;101826.66;5304484;27;20057;-88
2023/02/06 02:34:08;;;;;;;11.18;4.12;;;;;;;-4.46;58.91;101822.84;5304956;27;20045;-88
2023/02/06 02:36:37;;;;;;;8.23;3.80;;;;;;;-4.62;58.90;101835.38;5288908;27;20044;-88
2023/02/06 02:39:12;;;;;;;13.52;4.22;;;;;;;-4.70;58.90;101846.72;5286447;27;20052;-88
2023/02/06 02:41:52;;;;;;;8.68;4.18;;;;;;;-4.72;58.89;101836.47;5304700;27;20135;-88
2023/02/06 02:44:26;;;;;;;10.20;4.05;;;;;;;-4.66;58.89;101833.44;5287468;27;20074;-88
2023/02/06 02:46:52;;;;;;;10.40;4.78;;;;;;;-4.63;58.90;101833.63;5287931;27;20398;-89
2023/02/06 02:49:26;;;;;;;10.65;4.03;;;;;;;-4.56;58.90;101837.41;5268606;27;20630;-89
2023/02/06 02:51:52;;;;;;;9.43;3.95;;;;;;;-4.52;58.91;101836.81;5286552;27;20125;-90
2023/02/06 02:54:17;;;;;;;14.10;5.03;;;;;;;-4.62;58.90;101842.12;5286711;27;20072;-90
2023/02/06 02:56:43;;;;;;;9.23;3.92;;;;;;;-4.58;58.90;101838.97;5268704;27;20088;-90
2023/02/06 02:59:10;;;;;;;11.32;4.53;;;;;;;-4.65;58.89;101838.59;5268692;27;20102;-91
2023/02/06 03:01:47;;;;;;;9.15;4.07;;;;;;;-4.52;58.90;101842.78;5270742;27;20671;-91
2023/02/06 03:04:21;;;;;;;12.25;5.10;;;;;;;-4.30;58.91;101837.34;5307115;27;20059;-91
2023/02/06 03:06:56;;;;;;;10.90;4.00;;;;;;;-4.44;58.91;101841.59;5287731;27;20091;-92
2023/02/06 03:09:33;;;;;;;12.32;4.68;;;;;;;-4.43;58.90;101847.56;5287087;27;20037;-92
2023/02/06 03:12:11;;;;;;;11.65;4.60;;;;;;;-4.54;58.91;101848.53;5305289;27;20078;-91
2023/02/06 03:14:43;;;;;;;8.85;4.97;;;;;;;-4.66;58.90;101849.56;5324597;27;20097;-91
2023/02/06 03:17:09;;;;;;;12.80;4.43;;;;;;;-4.82;58.89;101861.19;5287991;27;20025;-89
2023/02/06 03:19:39;;;;;;;8.77;4.25;;;;;;;-4.81;58.89;101857.84;5305701;27;20049;-91
2023/02/06 03:22:04;;;;;;;12.75;5.57;;;;;;;-4.67;58.90;101854.53;5269271;27;20074;-92
2023/02/06 03:24:32;;;;;;;15.75;5.15;;;;;;;-4.95;58.88;101851.94;5289155;27;20052;-91
2023/02/06 03:27:00;;;;;;;11.15;5.47;;;;;;;-4.81;58.88;101857.84;5270906;27;20053;-92
2023/02/06 03:29:25;;;;;;;12.40;4.85;;;;;;;-4.81;58.89;101862.94;5286525;27;20211;-90
2023/02/06 03:31:51;;;;;;;11.07;5.47;;;;;;;-4.98;58.88;101865.28;5286403;27;20068;-89
2023/02/06 03:34:25;;;;;;;11.77;5.43;;;;;;;-4.83;58.88;101855.22;5286214;27;20064;-91
2023/02/06 03:36:50;;;;;;;14.15;5.70;;;;;;;-4.83;58.89;101859.44;5286702;27;20036;-90
2023/02/06 03:39:16;;;;;;;21.73;6.00;;;;;;;-4.73;58.89;101862.66;5268090;27;20406;-89
2023/02/06 03:41:41;;;;;;;12.93;5.37;;;;;;;-4.80;58.89;101852.88;5286662;27;20087;-90
2023/02/06 03:44:08;;;;;;;14.02;6.00;;;;;;;-4.62;58.90;101849.75;5270660;27;20431;-89
2023/02/06 03:46:34;;;;;;;12.75;5.65;;;;;;;-4.80;58.88;101855.41;5269517;27;20049;-88
2023/02/06 03:49:00;;;;;;;16.10;6.12;;;;;;;-4.63;58.90;101848.84;5287781;27;20134;-88
2023/02/06 03:51:30;;;;;;;14.98;6.37;;;;;;;-4.86;58.88;101855.03;5269371;26;20120;-88
2023/02/06 03:53:57;;;;;;;15.27;5.37;;;;;;;-4.79;58.89;101856.28;5286785;27;20096;-88
2023/02/06 03:56:39;;;;;;;10.75;4.70;;;;;;;-4.84;58.89;101842.44;5286712;27;20057;-89
2023/02/06 03:59:04;;;;;;;16.15;5.70;;;;;;;-5.01;58.87;101851.50;5287336;27;20194;-88
2023/02/06 04:01:30;;;;;;;12.50;5.32;;;;;;;-5.02;58.87;101857.37;5304961;27;20077;-90
2023/02/06 04:03:56;;;;;;;13.18;5.03;;;;;;;-4.97;58.88;101861.06;5268397;27;20048;-89
2023/02/06 04:06:21;;;;;;;12.50;5.00;;;;;;;-5.06;58.88;101848.69;5268346;27;20055;-90
2023/02/06 04:08:47;;;;;;;14.55;5.28;;;;;;;-5.20;58.87;101848.59;5307102;27;20069;-90
2023/02/06 04:11:12;;;;;;;14.32;5.62;;;;;;;-5.30;58.85;101849.63;5286906;27;20108;-90
2023/02/06 04:13:37;;;;;;;14.27;5.05;;;;;;;-5.17;58.87;101839.50;5268160;27;20110;-90
2023/02/06 04:16:03;;;;;;;11.23;4.90;;;;;;;-5.20;58.86;101854.53;5271350;27;20096;-90
2023/02/06 04:18:28;;;;;;;13.55;5.85;;;;;;;-5.33;58.86;101854.50;5311493;27;20064;-89
2023/02/06 04:20:54;;;;;;;13.18;5.70;;;;;;;-5.40;58.85;101849.81;5285998;27;20103;-90
2023/02/06 04:23:20;;;;;;;13.65;6.32;;;;;;;-5.21;58.87;101854.41;5286515;27;20101;-90
2023/02/06 04:25:46;;;;;;;14.57;6.10;;;;;;;-5.00;58.88;101854.13;5324813;27;20052;-90
2023/02/06 04:28:11;;;;;;;12.60;5.40;;;;;;;-5.12;58.87;101855.03;5285814;27;20393;-89
2023/02/06 04:30:37;;;;;;;10.88;4.40;;;;;;;-4.97;58.88;101850.91;5304035;27;20123;-89
2023/02/06 04:33:02;;;;;;;11.10;4.95;;;;;;;-5.01;58.87;101851.50;5267622;27;20096;-90
2023/02/06 04:35:28;;;;;;;10.05;4.90;;;;;;;-4.91;58.89;101851.34;5286249;27;20087;-89
2023/02/06 04:37:53;;;;;;;13.25;5.10;;;;;;;-4.93;58.87;101850.34;5286600;27;20129;-89
2023/02/06 04:40:19;;;;;;;15.00;5.30;;;;;;;-4.99;58.88;101855.91;5270266;27;20159;-90
2023/02/06 04:42:45;;;;;;;12.25;6.05;;;;;;;-5.14;58.87;101861.69;5285741;27;20102;-88
2023/02/06 04:45:10;;;;;;;11.65;5.65;;;;;;;-5.10;58.87;101867.03;5285702;27;20404;-90
2023/02/06 04:47:35;;;;;;;11.30;5.25;;;;;;;-4.98;58.88;101864.41;5285502;27;20407;-90
2023/02/06 04:50:02;;;;;;;12.60;4.72;;;;;;;-4.98;58.88;101864.41;5287592;27;20064;-88
2023/02/06 04:52:27;;;;;;;11.48;4.80;;;;;;;-4.92;58.89;101869.00;5286556;27;20061;-90
2023/02/06 04:54:52;;;;;;;13.20;5.57;;;;;;;-4.90;58.89;101854.75;5286509;27;20100;-89
2023/02/06 04:57:18;;;;;;;13.55;5.07;;;;;;;-4.86;58.88;101859.25;5289034;27;20104;-90
2023/02/06 04:59:44;;;;;;;12.35;5.18;;;;;;;-4.91;58.88;101863.16;5270002;27;20116;-89
2023/02/06 05:02:09;;;;;;;12.10;5.00;;;;;;;-4.87;58.88;101860.03;5305660;27;20381;-90
2023/02/06 05:04:35;;;;;;;13.60;5.15;;;;;;;-4.95;58.87;101868.03;5269048;27;20069;-90
2023/02/06 05:07:00;;;;;;;13.48;5.35;;;;;;;-5.04;58.88;101869.09;5269001;27;20125;-90
2023/02/06 05:09:26;;;;;;;14.57;5.25;;;;;;;-4.92;58.89;101862.28;5287052;27;20111;-89
2023/02/06 05:11:51;;;;;;;12.98;5.85;;;;;;;-5.09;58.87;101858.66;5268786;27;20398;-91
2023/02/06 05:14:16;;;;;;;13.27;5.22;;;;;;;-4.98;58.88;101869.47;5288494;27;20135;-91
2023/02/06 05:16:42;;;;;;;13.90;5.55;;;;;;;-4.80;58.89;101870.66;5272419;27;20116;-91
2023/02/06 05:19:08;;;;;;;11.70;5.35;;;;;;;-4.86;58.88;101866.84;5269045;27;20057;-90
2023/02/06 05:21:33;;;;;;;12.57;5.78;;;;;;;-4.77;58.89;101865.75;5268298;27;20353;-89
2023/02/06 05:23:58;;;;;;;12.40;5.28;;;;;;;-5.08;58.87;101855.31;5268744;27;20116;-89
2023/02/06 05:26:24;;;;;;;12.43;5.47;;;;;;;-4.99;58.88;101867.72;5268636;27;20104;-89
2023/02/06 05:28:49;;;;;;;15.00;5.50;;;;;;;-5.13;58.87;101871.94;5286570;27;20159;-91
2023/02/06 05:31:18;;;;;;;10.68;5.05;;;;;;;-5.16;58.86;101874.28;5268580;27;20106;-90
2023/02/06 05:33:47;;;;;;;12.93;5.13;;;;;;;-5.20;58.87;101867.25;5271944;27;20040;-90
2023/02/06 05:36:13;;;;;;;9.60;3.55;;;;;;;-5.16;58.87;101863.25;5270227;27;20051;-92
2023/02/06 05:38:38;;;;;;;12.77;4.93;;;;;;;-5.21;58.87;101862.91;5288373;27;20088;-90
2023/02/06 05:41:04;;;;;;;10.02;4.18;;;;;;;-5.04;58.87;101864.88;5268406;27;20073;-90
2023/02/06 05:43:29;;;;;;;9.40;4.35;;;;;;;-5.02;58.87;101865.88;5287004;27;20095;-92
2023/02/06 05:45:55;;;;;;;11.57;5.10;;;;;;;-4.89;58.88;101874.28;5268578;27;20111;-90
2023/02/06 05:48:22;;;;;;;12.00;5.18;;;;;;;-4.98;58.88;101877.09;5268502;27;20064;-90
2023/02/06 05:50:48;;;;;;;12.55;5.10;;;;;;;-4.99;58.88;101880.41;5304965;27;20053;-90
2023/02/06 05:53:17;;;;;;;9.65;4.40;;;;;;;-5.03;58.87;101881.88;5268684;27;20088;-90
2023/02/06 05:55:42;;;;;;;8.20;4.03;;;;;;;-4.70;58.89;101884.84;5269259;27;20456;-89
2023/02/06 05:58:08;;;;;;;11.65;4.85;;;;;;;-4.96;58.88;101878.97;5289832;27;20147;-90
2023/02/06 06:00:33;;;;;;;9.88;4.87;;;;;;;-4.76;58.89;101875.16;5269336;27;20422;-89
2023/02/06 06:02:58;;;;;;;12.45;4.60;;;;;;;-5.13;58.87;101878.66;5267998;27;20045;-89
2023/02/06 06:05:25;;;;;;;9.68;4.40;;;;;;;-4.99;58.88;101875.34;5268416;27;20115;-89
2023/02/06 06:07:50;;;;;;;8.52;3.97;;;;;;;-4.86;58.88;101870.28;5269842;27;20078;-90
2023/02/06 06:10:16;;;;;;;11.88;4.37;;;;;;;-4.65;58.89;101869.09;5268183;27;20088;-91
2023/02/06 06:12:41;;;;;;;16.25;4.62;;;;;;;-4.72;58.89;101866.97;5268816;27;20057;-92
2023/02/06 06:15:07;;;;;;;13.62;4.22;;;;;;;-4.75;58.89;101859.12;5268945;27;20256;-92
2023/02/06 06:17:32;;;;;;;10.68;4.45;;;;;;;-4.61;58.90;101875.25;5271160;27;20075;-92
2023/02/06 06:19:58;;;;;;;13.55;4.90;;;;;;;-4.66;58.90;101869.88;5268325;27;21583;-90
2023/02/06 06:22:23;;;;;;;13.25;5.22;;;;;;;-4.47;58.91;101873.56;5270465;27;20108;-92
2023/02/06 06:24:49;;;;;;;13.20;5.18;;;;;;;-4.69;58.89;101869.69;5271909;27;20069;-91
2023/02/06 06:27:14;;;;;;;15.57;6.28;;;;;;;-4.60;58.90;101861.75;5289206;27;20116;-91
2023/02/06 06:29:40;;;;;;;12.55;5.30;;;;;;;-4.64;58.89;101863.22;5270673;27;20060;-92
2023/02/06 06:32:05;;;;;;;12.70;5.95;;;;;;;-4.38;58.91;101862.31;5269204;27;20070;-92
2023/02/06 06:34:31;;;;;;;11.68;4.82;;;;;;;-4.37;58.91;101863.19;5268860;27;20112;-91
2023/02/06 06:36:56;;;;;;;14.63;6.07;;;;;;;-4.49;58.91;101867.53;5269419;27;20065;-91
2023/02/06 06:39:22;;;;;;;14.40;5.87;;;;;;;-4.35;58.92;101862.50;5270238;27;20060;-91
2023/02/06 06:41:47;;;;;;;12.57;5.05;;;;;;;-4.39;58.91;101863.09;5270958;27;20048;-92
2023/02/06 06:44:12;;;;;;;15.63;5.18;;;;;;;-4.35;58.92;101862.50;5269436;27;20131;-92
2023/02/06 06:46:38;;;;;;;15.73;5.72;;;;;;;-4.46;58.91;101862.62;5269303;27;20052;-92
2023/02/06 06:49:03;;;;;;;12.27;5.57;;;;;;;-4.14;58.92;101855.28;5269739;27;20052;-93
2023/02/06 06:51:29;;;;;;;12.95;6.07;;;;;;;-4.10;58.93;101867.41;5269456;26;20100;-92
2023/02/06 06:53:55;;;;;;;12.80;5.55;;;;;;;-4.02;58.93;101870.44;5270720;27;20075;-92
2023/02/06 06:56:21;;;;;;;15.10;5.50;;;;;;;-4.14;58.92;101869.69;5269940;27;20056;-92
2023/02/06 06:58:46;;;;;;;20.05;7.35;;;;;;;-4.22;58.92;101871.75;5268813;27;20104;-93
2023/02/06 07:01:11;;;;;;;19.17;6.28;;;;;;;-4.17;58.93;101870.37;5268539;27;20065;-93
2023/02/06 07:03:37;;;;;;;17.35;6.85;;;;;;;-4.08;58.93;101860.75;5269082;27;20078;-92
2023/02/06 07:06:05;;;;;;;15.75;6.07;;;;;;;-4.10;58.93;101862.31;5271891;27;20143;-91
2023/02/06 07:08:31;;;;;;;13.05;6.22;;;;;;;-4.05;58.93;101857.50;5269603;27;20112;-92
2023/02/06 07:10:56;;;;;;;12.02;5.20;;;;;;;-3.84;58.95;101858.78;5287246;27;20122;-92
2023/02/06 07:13:22;;;;;;;12.55;4.87;;;;;;;-3.84;58.95;101853.72;5274407;27;20057;-92
2023/02/06 07:15:47;;;;;;;13.52;5.87;;;;;;;-3.57;58.96;101854.44;5273575;27;20099;-92
2023/02/06 07:18:13;;;;;;;19.15;6.07;;;;;;;-3.58;58.96;101867.09;5268966;27;20097;-91
2023/02/06 07:20:38;;;;;;;15.32;5.55;;;;;;;-3.40;58.97;101863.06;5268477;27;20079;-92
2023/02/06 07:23:04;;;;;;;14.02;6.40;;;;;;;-3.37;58.97;101860.69;5268502;27;20061;-92
2023/02/06 07:25:30;;;;;;;16.77;5.22;;;;;;;-3.29;58.97;101861.16;5268598;27;20096;-92
2023/02/06 07:27:55;;;;;;;21.67;9.35;;;;;;;-3.24;58.99;101864.84;5269117;27;20052;-92
2023/02/06 07:30:20;;;;;;;35.80;13.62;;;;;;;-3.00;58.99;101865.34;5269326;27;20056;-92
2023/02/06 07:32:46;;;;;;;25.25;11.12;;;;;;;-2.79;59.00;101864.00;5273710;26;20047;-92
2023/02/06 07:35:14;;;;;;;26.92;10.25;;;;;;;-2.54;59.03;101874.75;5268729;27;20109;-91
2023/02/06 07:37:39;;;;;;;18.27;8.23;;;;;;;-2.63;59.01;101863.16;5269257;27;20057;-92
2023/02/06 07:40:05;;;;;;;15.80;7.15;;;;;;;-2.35;59.03;101861.34;5287088;27;20395;-90
2023/02/06 07:42:32;;;;;;;19.62;7.40;;;;;;;-2.21;59.04;101859.50;5269055;27;20071;-91
2023/02/06 07:44:57;;;;;;;16.50;8.02;;;;;;;-2.05;59.05;101854.44;5269971;27;20069;-92
2023/02/06 07:47:23;;;;;;;12.35;6.25;;;;;;;-1.73;59.07;101861.19;5287556;27;20108;-91
2023/02/06 07:49:50;;;;;;;11.05;6.05;;;;;;;-1.60;59.08;101853.38;5269032;27;20073;-91
2023/02/06 07:52:15;;;;;;;14.60;6.03;;;;;;;-1.50;59.08;101849.59;5269533;27;20033;-91
2023/02/06 07:54:40;;;;;;;13.23;5.68;;;;;;;-1.27;59.10;101850.75;5288354;27;20063;-91
2023/02/06 07:57:06;;;;;;;12.52;5.82;;;;;;;-1.17;59.10;101844.41;5268661;27;20092;-92
2023/02/06 07:59:31;;;;;;;11.63;5.47;;;;;;;-0.83;59.12;101840.13;5268030;27;20099;-91
2023/02/06 08:01:57;;;;;;;12.65;5.57;;;;;;;-0.82;59.13;101835.88;5268199;27;20064;-90
2023/02/06 08:04:22;;;;;;;13.20;5.65;;;;;;;-0.93;59.12;101836.25;5268248;27;20102;-90
2023/02/06 08:06:48;;;;;;;13.65;4.97;;;;;;;-0.69;59.13;101830.53;5269021;27;20470;-92
2023/02/06 08:09:16;;;;;;;10.90;5.03;;;;;;;-0.55;59.13;101832.03;5268724;27;20446;-90
2023/02/06 08:11:41;;;;;;;10.63;4.50;;;;;;;-0.27;59.16;101825.63;5289168;27;20025;-89
2023/02/06 08:14:07;;;;;;;12.15;4.65;;;;;;;0.04;59.17;101833.87;5287394;27;20108;-90
2023/02/06 08:16:32;;;;;;;11.48;4.90;;;;;;;0.15;59.17;101837.75;5268105;27;20100;-90
2023/02/06 08:18:58;;;;;;;9.05;4.70;;;;;;;0.26;59.19;101836.56;5267771;27;20099;-90
2023/02/06 08:21:26;;;;;;;9.98;4.57;;;;;;;0.29;59.18;101834.13;5267396;27;20099;-91
2023/02/06 08:23:55;;;;;;;10.82;4.78;;;;;;;0.58;59.20;101839.59;5267687;27;20084;-90
2023/02/06 08:26:21;;;;;;;7.55;3.95;;;;;;;0.66;59.21;101829.66;5267362;27;20123;-90
2023/02/06 08:28:47;;;;;;;9.30;4.50;;;;;;;0.85;59.22;101829.59;5267659;27;20064;-92
2023/02/06 08:31:24;;;;;;;11.88;4.43;;;;;;;1.12;59.23;101824.69;5267800;27;20125;-91
2023/02/06 08:33:49;;;;;;;13.60;5.25;;;;;;;1.27;59.25;101832.12;5276474;27;20112;-91
2023/02/06 08:36:15;;;;;;;9.48;4.57;;;;;;;1.43;59.26;101824.22;5268150;27;20105;-91
2023/02/06 08:38:41;;;;;;;12.52;5.20;;;;;;;1.70;59.27;101827.81;5267918;27;20067;-90
2023/02/06 08:41:16;;;;;;;11.60;4.93;;;;;;;1.73;59.27;101820.22;5267868;27;20630;-92
2023/02/06 08:43:48;;;;;;;10.55;4.57;;;;;;;1.92;59.28;101820.91;5267953;27;20631;-91
2023/02/06 08:46:14;;;;;;;9.95;4.68;;;;;;;1.82;59.27;101817.09;5267618;27;20035;-92
2023/02/06 08:48:39;;;;;;;12.37;5.25;;;;;;;2.25;59.30;101810.94;5267691;27;20025;-91
2023/02/06 08:51:06;;;;;;;10.05;4.70;;;;;;;2.57;59.31;101809.44;5268232;27;20057;-91
2023/02/06 08:53:31;;;;;;;9.60;4.70;;;;;;;2.66;59.32;101802.06;5267877;27;20119;-92
2023/02/06 08:56:05;;;;;;;10.13;5.55;;;;;;;2.74;59.33;101798.91;5268062;27;20102;-93
2023/02/06 08:58:31;;;;;;;10.30;4.50;;;;;;;2.78;59.33;101805.00;5285406;27;20045;-92
2023/02/06 09:00:56;;;;;;;10.45;4.90;;;;;;;2.74;59.33;101806.59;5285584;27;20075;-92
2023/02/06 09:03:22;;;;;;;12.80;5.18;;;;;;;2.80;59.33;101803.34;5267433;27;20393;-89
2023/02/06 09:05:48;;;;;;;12.57;5.18;;;;;;;2.80;59.33;101805.94;5269600;27;20604;-92
2023/02/06 09:08:14;;;;;;;11.20;4.97;;;;;;;2.73;59.33;101804.84;5287823;27;20048;-91
2023/02/06 09:10:39;;;;;;;10.45;5.03;;;;;;;2.87;59.33;101809.59;5267919;27;20147;-92
2023/02/06 09:13:05;;;;;;;10.70;4.82;;;;;;;2.83;59.34;101811.16;5267487;27;20116;-93
2023/02/06 09:15:30;;;;;;;12.02;4.43;;;;;;;3.10;59.35;101816.34;5267590;27;20104;-93
2023/02/06 09:17:55;;;;;;;8.85;4.22;;;;;;;3.23;59.35;101812.44;5267057;27;20041;-92
2023/02/06 09:20:21;;;;;;;10.68;4.68;;;;;;;3.29;59.36;101818.62;5268436;27;20103;-92
2023/02/06 09:22:46;;;;;;;12.50;4.62;;;;;;;3.37;59.36;101814.59;5268710;27;20114;-93
2023/02/06 09:25:12;;;;;;;9.68;4.47;;;;;;;3.56;59.38;101810.88;5268044;27;20429;-93
2023/02/06 09:27:37;;;;;;;7.97;4.22;;;;;;;3.42;59.37;101806.16;5268656;27;20291;-93
2023/02/06 09:30:03;;;;;;;9.00;4.43;;;;;;;3.39;59.37;101802.66;5268624;27;20380;-92
2023/02/06 09:32:28;;;;;;;11.35;4.57;;;;;;;3.45;59.36;101807.09;5285212;27;20115;-91
2023/02/06 09:34:54;;;;;;;10.98;4.43;;;;;;;3.50;59.37;101805.53;5268231;27;20127;-93
2023/02/06 09:37:20;;;;;;;8.35;4.20;;;;;;;3.37;59.36;101806.87;5268641;27;20143;-92
2023/02/06 09:39:45;;;;;;;10.15;4.15;;;;;;;3.60;59.38;101802.41;5287217;27;20076;-93
2023/02/06 09:42:22;;;;;;;8.95;4.15;;;;;;;3.77;59.39;101805.47;5268790;27;20072;-90
2023/02/06 09:44:50;;;;;;;9.90;3.85;;;;;;;4.03;59.40;101801.06;5269096;27;20061;-91
2023/02/06 09:47:25;;;;;;;8.48;4.00;;;;;;;4.11;59.41;101802.13;5293363;27;20087;-92
2023/02/06 09:49:57;;;;;;;10.70;4.05;;;;;;;4.07;59.40;101804.59;5290420;27;20071;-92
2023/02/06 09:52:49;;;;;;;14.95;4.87;;;;;;;3.82;59.39;101805.63;5287437;27;20025;-91
2023/02/06 09:55:37;;;;;;;11.98;5.32;;;;;;;3.87;59.39;101804.91;5306729;27;20116;-91
2023/02/06 09:58:15;;;;;;;8.98;4.30;;;;;;;4.00;59.40;101796.66;5287883;27;20435;-91
2023/02/06 10:00:40;;;;;;;9.07;4.68;;;;;;;4.03;59.40;101789.87;5307960;27;20084;-94
2023/02/06 10:03:28;;;;;;;10.57;4.20;;;;;;;3.88;59.39;101788.63;5307772;27;20061;-92
2023/02/06 10:06:23;;;;;;;9.25;4.30;;;;;;;3.67;59.38;101790.59;5308043;27;20352;-93
2023/02/06 10:09:24;;;;;;;9.45;4.30;;;;;;;3.69;59.39;101791.50;5286932;27;20053;-93
2023/02/06 10:12:30;;;;;;;11.12;4.62;;;;;;;3.71;59.39;101792.41;5287579;27;20104;-93
2023/02/06 10:15:29;;;;;;;12.45;4.90;;;;;;;3.64;59.38;101785.34;5304642;27;20110;-92
2023/02/06 10:18:04;;;;;;;7.97;4.55;;;;;;;3.58;59.38;101780.91;5279987;27;20389;-93
2023/02/06 10:20:30;;;;;;;10.75;4.05;;;;;;;3.56;59.37;101779.13;5271806;27;20792;-92
2023/02/06 10:22:55;;;;;;;8.82;4.28;;;;;;;3.58;59.37;101783.47;5326678;27;20056;-90
2023/02/06 10:25:32;;;;;;;9.43;4.60;;;;;;;3.69;59.39;101776.03;5306378;27;20085;-91
2023/02/06 10:28:04;;;;;;;8.32;4.12;;;;;;;3.52;59.37;101779.81;5270802;27;20061;-92
2023/02/06 10:30:57;;;;;;;11.38;4.15;;;;;;;3.53;59.38;101776.44;5268724;27;20059;-91
2023/02/06 10:33:47;;;;;;;10.65;4.03;;;;;;;3.41;59.37;101770.94;5286966;27;20094;-90
2023/02/06 10:36:34;;;;;;;8.82;4.65;;;;;;;3.52;59.37;101774.69;5305436;27;20062;-92
2023/02/06 10:39:16;;;;;;;6.28;3.67;;;;;;;3.59;59.37;101772.34;5326331;27;20045;-92
2023/02/06 10:42:03;;;;;;;11.43;4.32;;;;;;;3.73;59.39;101766.69;5289754;27;20055;-91
2023/02/06 10:44:41;;;;;;;9.10;4.62;;;;;;;3.87;59.40;101761.09;5291155;27;20060;-89
2023/02/06 10:47:28;;;;;;;9.25;4.07;;;;;;;3.88;59.39;101754.25;5289463;27;20064;-93
2023/02/06 10:50:01;;;;;;;11.60;4.60;;;;;;;3.86;59.40;101746.47;5326459;27;20079;-91
2023/02/06 10:52:28;;;;;;;9.77;5.10;;;;;;;3.91;59.40;101747.47;5289339;27;20113;-93
2023/02/06 10:54:56;;;;;;;10.25;5.03;;;;;;;3.93;59.39;101739.78;5288800;27;20056;-92
2023/02/06 10:57:23;;;;;;;12.37;5.53;;;;;;;3.96;59.39;101733.00;5290147;27;20057;-92
2023/02/06 10:59:50;;;;;;;11.40;5.22;;;;;;;3.97;59.41;101732.16;5270319;27;20063;-93
2023/02/06 11:02:20;;;;;;;12.15;5.03;;;;;;;4.12;59.40;101736.88;5290964;27;20038;-93
2023/02/06 11:04:50;;;;;;;11.12;5.20;;;;;;;3.91;59.40;101737.16;5289460;27;20033;-93
2023/02/06 11:07:17;;;;;;;;;;;;;;;3.95;59.39;101740.69;5291062;27;20056;-94
2023/02/06 11:09:43;;;;;;;14.80;5.85;;;;;;;3.86;59.39;101736.19;5308537;27;19982;-92
2023/02/06 11:12:27;;;;;;;14.13;5.93;;;;;;;3.97;59.39;101734.75;5273278;27;20024;-92
2023/02/06 11:14:52;;;;;;;11.68;6.22;;;;;;;3.91;59.40;101731.16;5308300;27;20060;-92
2023/02/06 11:17:18;;;;;;;15.13;6.32;;;;;;;3.62;59.38;101723.50;5288881;27;20060;-93
2023/02/06 11:19:43;;;;;;;15.73;6.93;;;;;;;3.61;59.38;101721.75;5293017;26;20072;-91
2023/02/06 11:22:08;;;;;;;15.52;6.78;;;;;;;3.53;59.38;101728.37;5304046;27;20064;-92
2023/02/06 11:24:34;;;;;;;13.55;6.57;;;;;;;3.60;59.37;101726.88;5336234;26;20068;-93
2023/02/06 11:27:02;;;;;;;13.00;5.90;;;;;;;3.72;59.38;101719.47;5270875;27;20060;-93